sensor_id;sensor_type;location;lat;lon;timestamp;P1;durP1;ratioP1;P2;durP2;ratioP2
32196;SDS011;18697;42.770;23.400;2022-09-03T00:01:19;5.63;;;3.90;;
32196;SDS011;18697;42.770;23.400;2022-09-03T00:03:53;5.57;;;3.28;;
32196;SDS011;18697;42.770;23.400;2022-09-03T00:06:27;7.40;;;3.88;;
32196;SDS011;18697;42.770;23.400;2022-09-03T00:09:02;7.05;;;3.25;;
32196;SDS011;18697;42.770;23.400;2022-09-03T00:11:39;7.30;;;4.20;;
32196;SDS011;18697;42.770;23.400;2022-09-03T00:14:18;4.90;;;3.33;;
32196;SDS011;18697;42.770;23.400;2022-09-03T00:16:54;4.35;;;3.95;;
32196;SDS011;18697;42.770;23.400;2022-09-03T00:19:25;6.93;;;4.22;;
32196;SDS011;18697;42.770;23.400;2022-09-03T00:22:16;6.45;;;4.43;;
32196;SDS011;18697;42.770;23.400;2022-09-03T00:24:45;5.40;;;4.07;;
32196;SDS011;18697;42.770;23.400;2022-09-03T00:27:15;5.28;;;4.18;;
32196;SDS011;18697;42.770;23.400;2022-09-03T00:29:54;3.50;;;3.20;;
32196;SDS011;18697;42.770;23.400;2022-09-03T00:32:36;5.93;;;4.00;;
32196;SDS011;18697;42.770;23.400;2022-09-03T00:35:10;5.63;;;4.75;;
32196;SDS011;18697;42.770;23.400;2022-09-03T00:37:57;4.15;;;3.75;;
32196;SDS011;18697;42.770;23.400;2022-09-03T00:43:25;5.60;;;3.70;;
32196;SDS011;18697;42.770;23.400;2022-09-03T00:51:49;5.00;;;4.15;;
32196;SDS011;18697;42.770;23.400;2022-09-03T01:00:15;19.13;;;4.70;;
32196;SDS011;18697;42.770;23.400;2022-09-03T01:08:44;4.55;;;3.45;;
32196;SDS011;18697;42.770;23.400;2022-09-03T01:13:59;7.07;;;4.00;;
32196;SDS011;18697;42.770;23.400;2022-09-03T01:16:48;3.85;;;3.47;;
32196;SDS011;18697;42.770;23.400;2022-09-03T01:30:05;5.20;;;3.60;;
32196;SDS011;18697;42.770;23.400;2022-09-03T01:33:08;5.70;;;4.28;;
32196;SDS011;18697;42.770;23.400;2022-09-03T01:38:54;6.75;;;4.05;;
32196;SDS011;18697;42.770;23.400;2022-09-03T01:41:35;6.07;;;3.97;;
32196;SDS011;18697;42.770;23.400;2022-09-03T01:49:55;4.07;;;3.67;;
32196;SDS011;18697;42.770;23.400;2022-09-03T01:55:27;7.05;;;4.43;;
32196;SDS011;18697;42.770;23.400;2022-09-03T01:57:59;7.38;;;3.78;;
32196;SDS011;18697;42.770;23.400;2022-09-03T02:00:45;9.07;;;4.97;;
32196;SDS011;18697;42.770;23.400;2022-09-03T02:03:21;6.18;;;4.28;;
32196;SDS011;18697;42.770;23.400;2022-09-03T02:05:48;6.22;;;4.15;;
32196;SDS011;18697;42.770;23.400;2022-09-03T02:08:17;6.82;;;4.22;;
32196;SDS011;18697;42.770;23.400;2022-09-03T02:10:44;9.43;;;5.43;;
32196;SDS011;18697;42.770;23.400;2022-09-03T02:13:29;6.25;;;4.70;;
32196;SDS011;18697;42.770;23.400;2022-09-03T02:16:01;4.72;;;4.00;;
32196;SDS011;18697;42.770;23.400;2022-09-03T02:18:33;6.35;;;5.03;;
32196;SDS011;18697;42.770;23.400;2022-09-03T02:21:03;7.82;;;4.72;;
32196;SDS011;18697;42.770;23.400;2022-09-03T02:23:29;5.00;;;4.40;;
32196;SDS011;18697;42.770;23.400;2022-09-03T02:25:56;6.90;;;4.38;;
32196;SDS011;18697;42.770;23.400;2022-09-03T02:28:24;5.38;;;4.05;;
32196;SDS011;18697;42.770;23.400;2022-09-03T02:30:50;7.38;;;4.28;;
32196;SDS011;18697;42.770;23.400;2022-09-03T02:33:16;7.35;;;4.63;;
32196;SDS011;18697;42.770;23.400;2022-09-03T02:35:41;5.53;;;4.85;;
32196;SDS011;18697;42.770;23.400;2022-09-03T02:38:28;7.00;;;4.88;;
32196;SDS011;18697;42.770;23.400;2022-09-03T02:40:53;7.28;;;5.00;;
32196;SDS011;18697;42.770;23.400;2022-09-03T02:43:41;5.88;;;4.68;;
32196;SDS011;18697;42.770;23.400;2022-09-03T02:46:33;6.22;;;4.80;;
32196;SDS011;18697;42.770;23.400;2022-09-03T02:48:59;6.20;;;4.90;;
32196;SDS011;18697;42.770;23.400;2022-09-03T02:51:24;6.45;;;5.07;;
32196;SDS011;18697;42.770;23.400;2022-09-03T02:53:50;9.52;;;5.18;;
32196;SDS011;18697;42.770;23.400;2022-09-03T02:56:15;7.78;;;5.03;;
32196;SDS011;18697;42.770;23.400;2022-09-03T02:58:41;6.75;;;4.95;;
32196;SDS011;18697;42.770;23.400;2022-09-03T03:01:07;5.95;;;4.60;;
32196;SDS011;18697;42.770;23.400;2022-09-03T03:03:32;5.68;;;4.93;;
32196;SDS011;18697;42.770;23.400;2022-09-03T03:05:59;6.30;;;4.55;;
32196;SDS011;18697;42.770;23.400;2022-09-03T03:08:27;8.02;;;4.85;;
32196;SDS011;18697;42.770;23.400;2022-09-03T03:10:56;8.18;;;5.50;;
32196;SDS011;18697;42.770;23.400;2022-09-03T03:13:22;10.20;;;6.07;;
32196;SDS011;18697;42.770;23.400;2022-09-03T03:15:48;9.32;;;4.97;;
32196;SDS011;18697;42.770;23.400;2022-09-03T03:18:14;7.82;;;5.95;;
32196;SDS011;18697;42.770;23.400;2022-09-03T03:20:41;6.95;;;5.70;;
32196;SDS011;18697;42.770;23.400;2022-09-03T03:23:07;11.30;;;6.10;;
32196;SDS011;18697;42.770;23.400;2022-09-03T03:25:34;8.82;;;5.78;;
32196;SDS011;18697;42.770;23.400;2022-09-03T03:28:01;8.05;;;5.63;;
32196;SDS011;18697;42.770;23.400;2022-09-03T03:30:28;11.20;;;6.30;;
32196;SDS011;18697;42.770;23.400;2022-09-03T03:32:54;8.68;;;5.00;;
32196;SDS011;18697;42.770;23.400;2022-09-03T03:35:20;12.50;;;5.65;;
32196;SDS011;18697;42.770;23.400;2022-09-03T03:37:45;8.05;;;5.47;;
32196;SDS011;18697;42.770;23.400;2022-09-03T03:40:11;7.95;;;5.32;;
32196;SDS011;18697;42.770;23.400;2022-09-03T03:42:37;7.88;;;5.55;;
32196;SDS011;18697;42.770;23.400;2022-09-03T03:45:03;7.55;;;5.43;;
32196;SDS011;18697;42.770;23.400;2022-09-03T03:47:29;9.13;;;5.75;;
32196;SDS011;18697;42.770;23.400;2022-09-03T03:49:58;8.75;;;5.75;;
32196;SDS011;18697;42.770;23.400;2022-09-03T03:52:24;8.07;;;5.70;;
32196;SDS011;18697;42.770;23.400;2022-09-03T03:54:51;6.50;;;5.13;;
32196;SDS011;18697;42.770;23.400;2022-09-03T03:57:18;9.88;;;5.80;;
32196;SDS011;18697;42.770;23.400;2022-09-03T03:59:44;11.40;;;5.90;;
32196;SDS011;18697;42.770;23.400;2022-09-03T04:02:10;7.55;;;5.78;;
32196;SDS011;18697;42.770;23.400;2022-09-03T04:04:36;8.68;;;5.50;;
32196;SDS011;18697;42.770;23.400;2022-09-03T04:07:02;8.07;;;5.90;;
32196;SDS011;18697;42.770;23.400;2022-09-03T04:09:27;8.68;;;5.38;;
32196;SDS011;18697;42.770;23.400;2022-09-03T04:11:53;9.75;;;5.88;;
32196;SDS011;18697;42.770;23.400;2022-09-03T04:14:18;7.70;;;4.95;;
32196;SDS011;18697;42.770;23.400;2022-09-03T04:16:44;8.35;;;5.93;;
32196;SDS011;18697;42.770;23.400;2022-09-03T04:19:11;10.30;;;5.80;;
32196;SDS011;18697;42.770;23.400;2022-09-03T04:21:37;10.20;;;5.78;;
32196;SDS011;18697;42.770;23.400;2022-09-03T04:24:03;11.10;;;6.68;;
32196;SDS011;18697;42.770;23.400;2022-09-03T04:26:30;8.63;;;6.15;;
32196;SDS011;18697;42.770;23.400;2022-09-03T04:28:57;16.75;;;6.05;;
32196;SDS011;18697;42.770;23.400;2022-09-03T04:31:27;10.40;;;5.82;;
32196;SDS011;18697;42.770;23.400;2022-09-03T04:33:52;7.78;;;5.50;;
32196;SDS011;18697;42.770;23.400;2022-09-03T04:36:20;11.82;;;6.30;;
32196;SDS011;18697;42.770;23.400;2022-09-03T04:38:49;8.60;;;5.80;;
32196;SDS011;18697;42.770;23.400;2022-09-03T04:41:19;10.15;;;6.05;;
32196;SDS011;18697;42.770;23.400;2022-09-03T04:43:49;8.00;;;5.80;;
32196;SDS011;18697;42.770;23.400;2022-09-03T04:46:15;11.40;;;6.65;;
32196;SDS011;18697;42.770;23.400;2022-09-03T04:48:41;7.80;;;5.65;;
32196;SDS011;18697;42.770;23.400;2022-09-03T04:51:09;11.00;;;6.50;;
32196;SDS011;18697;42.770;23.400;2022-09-03T04:53:40;11.73;;;6.82;;
32196;SDS011;18697;42.770;23.400;2022-09-03T04:56:23;8.70;;;6.55;;
32196;SDS011;18697;42.770;23.400;2022-09-03T04:58:54;9.85;;;6.40;;
32196;SDS011;18697;42.770;23.400;2022-09-03T05:01:21;10.65;;;6.68;;
32196;SDS011;18697;42.770;23.400;2022-09-03T05:03:48;10.90;;;6.53;;
32196;SDS011;18697;42.770;23.400;2022-09-03T05:06:15;11.65;;;6.78;;
32196;SDS011;18697;42.770;23.400;2022-09-03T05:08:47;9.25;;;6.32;;
32196;SDS011;18697;42.770;23.400;2022-09-03T05:11:13;8.73;;;6.50;;
32196;SDS011;18697;42.770;23.400;2022-09-03T05:13:39;9.38;;;6.25;;
32196;SDS011;18697;42.770;23.400;2022-09-03T05:16:05;10.02;;;6.35;;
32196;SDS011;18697;42.770;23.400;2022-09-03T05:18:34;8.40;;;5.95;;
32196;SDS011;18697;42.770;23.400;2022-09-03T05:21:04;10.98;;;7.20;;
32196;SDS011;18697;42.770;23.400;2022-09-03T05:23:34;11.13;;;7.57;;
32196;SDS011;18697;42.770;23.400;2022-09-03T05:26:02;10.30;;;6.78;;
32196;SDS011;18697;42.770;23.400;2022-09-03T05:28:33;10.05;;;7.47;;
32196;SDS011;18697;42.770;23.400;2022-09-03T05:31:01;11.98;;;7.95;;
32196;SDS011;18697;42.770;23.400;2022-09-03T05:33:28;11.63;;;7.82;;
32196;SDS011;18697;42.770;23.400;2022-09-03T05:36:00;11.88;;;7.55;;
32196;SDS011;18697;42.770;23.400;2022-09-03T05:38:27;11.85;;;7.03;;
32196;SDS011;18697;42.770;23.400;2022-09-03T05:40:53;12.50;;;7.72;;
32196;SDS011;18697;42.770;23.400;2022-09-03T05:43:18;11.70;;;8.32;;
32196;SDS011;18697;42.770;23.400;2022-09-03T05:45:44;12.68;;;8.05;;
32196;SDS011;18697;42.770;23.400;2022-09-03T05:48:10;9.52;;;7.13;;
32196;SDS011;18697;42.770;23.400;2022-09-03T05:50:35;9.98;;;7.18;;
32196;SDS011;18697;42.770;23.400;2022-09-03T05:53:01;10.65;;;7.18;;
32196;SDS011;18697;42.770;23.400;2022-09-03T05:55:26;13.20;;;8.35;;
32196;SDS011;18697;42.770;23.400;2022-09-03T05:57:52;11.27;;;7.65;;
32196;SDS011;18697;42.770;23.400;2022-09-03T06:00:18;9.77;;;6.50;;
32196;SDS011;18697;42.770;23.400;2022-09-03T06:02:50;11.25;;;7.32;;
32196;SDS011;18697;42.770;23.400;2022-09-03T06:05:16;11.48;;;8.02;;
32196;SDS011;18697;42.770;23.400;2022-09-03T06:07:43;12.73;;;7.32;;
32196;SDS011;18697;42.770;23.400;2022-09-03T06:10:09;9.95;;;7.15;;
32196;SDS011;18697;42.770;23.400;2022-09-03T06:12:36;11.90;;;8.10;;
32196;SDS011;18697;42.770;23.400;2022-09-03T06:15:02;11.45;;;7.97;;
32196;SDS011;18697;42.770;23.400;2022-09-03T06:17:29;11.90;;;7.35;;
32196;SDS011;18697;42.770;23.400;2022-09-03T06:19:55;9.50;;;6.82;;
32196;SDS011;18697;42.770;23.400;2022-09-03T06:22:20;10.00;;;6.40;;
32196;SDS011;18697;42.770;23.400;2022-09-03T06:24:48;7.63;;;6.03;;
32196;SDS011;18697;42.770;23.400;2022-09-03T06:27:14;12.80;;;7.25;;
32196;SDS011;18697;42.770;23.400;2022-09-03T06:29:39;7.78;;;6.18;;
32196;SDS011;18697;42.770;23.400;2022-09-03T06:32:05;9.18;;;6.50;;
32196;SDS011;18697;42.770;23.400;2022-09-03T06:34:30;7.75;;;6.05;;
32196;SDS011;18697;42.770;23.400;2022-09-03T06:36:56;10.38;;;5.70;;
32196;SDS011;18697;42.770;23.400;2022-09-03T06:39:22;7.85;;;6.30;;
32196;SDS011;18697;42.770;23.400;2022-09-03T06:41:49;7.80;;;6.45;;
32196;SDS011;18697;42.770;23.400;2022-09-03T06:44:15;8.77;;;6.40;;
32196;SDS011;18697;42.770;23.400;2022-09-03T06:46:41;8.07;;;5.65;;
32196;SDS011;18697;42.770;23.400;2022-09-03T06:49:07;7.80;;;5.70;;
32196;SDS011;18697;42.770;23.400;2022-09-03T06:51:33;7.50;;;5.80;;
32196;SDS011;18697;42.770;23.400;2022-09-03T06:54:02;7.43;;;5.10;;
32196;SDS011;18697;42.770;23.400;2022-09-03T06:56:30;9.75;;;5.18;;
32196;SDS011;18697;42.770;23.400;2022-09-03T06:58:57;6.85;;;5.05;;
32196;SDS011;18697;42.770;23.400;2022-09-03T07:01:28;6.93;;;4.75;;
32196;SDS011;18697;42.770;23.400;2022-09-03T07:04:01;5.40;;;4.05;;
32196;SDS011;18697;42.770;23.400;2022-09-03T07:06:28;5.68;;;4.40;;
32196;SDS011;18697;42.770;23.400;2022-09-03T07:08:57;5.80;;;4.47;;
32196;SDS011;18697;42.770;23.400;2022-09-03T07:11:25;4.57;;;4.13;;
32196;SDS011;18697;42.770;23.400;2022-09-03T07:13:53;3.65;;;3.33;;
32196;SDS011;18697;42.770;23.400;2022-09-03T07:16:23;8.13;;;4.22;;
32196;SDS011;18697;42.770;23.400;2022-09-03T07:18:54;4.80;;;3.97;;
32196;SDS011;18697;42.770;23.400;2022-09-03T07:21:21;5.20;;;3.80;;
32196;SDS011;18697;42.770;23.400;2022-09-03T07:23:48;6.80;;;4.32;;
32196;SDS011;18697;42.770;23.400;2022-09-03T07:26:17;22.92;;;13.48;;
32196;SDS011;18697;42.770;23.400;2022-09-03T07:28:45;12.85;;;5.90;;
32196;SDS011;18697;42.770;23.400;2022-09-03T07:31:14;5.93;;;5.07;;
32196;SDS011;18697;42.770;23.400;2022-09-03T07:33:43;11.38;;;4.57;;
32196;SDS011;18697;42.770;23.400;2022-09-03T07:36:10;7.63;;;4.95;;
32196;SDS011;18697;42.770;23.400;2022-09-03T07:38:38;5.20;;;4.10;;
32196;SDS011;18697;42.770;23.400;2022-09-03T07:41:05;6.75;;;4.85;;
32196;SDS011;18697;42.770;23.400;2022-09-03T07:43:36;4.45;;;4.05;;
32196;SDS011;18697;42.770;23.400;2022-09-03T07:46:31;5.80;;;4.43;;
32196;SDS011;18697;42.770;23.400;2022-09-03T07:48:58;5.88;;;4.75;;
32196;SDS011;18697;42.770;23.400;2022-09-03T07:51:29;5.90;;;4.72;;
32196;SDS011;18697;42.770;23.400;2022-09-03T07:53:57;5.80;;;4.88;;
32196;SDS011;18697;42.770;23.400;2022-09-03T07:56:24;6.53;;;5.30;;
32196;SDS011;18697;42.770;23.400;2022-09-03T07:58:51;5.63;;;4.78;;
32196;SDS011;18697;42.770;23.400;2022-09-03T08:01:19;6.50;;;4.72;;
32196;SDS011;18697;42.770;23.400;2022-09-03T08:03:48;4.60;;;4.00;;
32196;SDS011;18697;42.770;23.400;2022-09-03T08:06:15;7.85;;;5.15;;
32196;SDS011;18697;42.770;23.400;2022-09-03T08:08:42;7.05;;;5.32;;
32196;SDS011;18697;42.770;23.400;2022-09-03T08:11:16;6.57;;;4.28;;
32196;SDS011;18697;42.770;23.400;2022-09-03T08:16:25;5.10;;;4.60;;
32196;SDS011;18697;42.770;23.400;2022-09-03T08:18:52;16.42;;;10.80;;
32196;SDS011;18697;42.770;23.400;2022-09-03T08:21:18;10.70;;;7.25;;
32196;SDS011;18697;42.770;23.400;2022-09-03T08:23:47;7.47;;;6.32;;
32196;SDS011;18697;42.770;23.400;2022-09-03T08:26:14;5.63;;;4.82;;
32196;SDS011;18697;42.770;23.400;2022-09-03T08:28:41;8.68;;;5.60;;
32196;SDS011;18697;42.770;23.400;2022-09-03T08:33:35;5.55;;;4.78;;
32196;SDS011;18697;42.770;23.400;2022-09-03T08:36:09;7.05;;;5.10;;
32196;SDS011;18697;42.770;23.400;2022-09-03T08:38:39;4.75;;;4.20;;
32196;SDS011;18697;42.770;23.400;2022-09-03T08:43:38;5.55;;;4.47;;
32196;SDS011;18697;42.770;23.400;2022-09-03T08:46:49;11.30;;;4.68;;
32196;SDS011;18697;42.770;23.400;2022-09-03T08:49:40;5.70;;;4.45;;
32196;SDS011;18697;42.770;23.400;2022-09-03T08:54:57;4.88;;;4.38;;
32196;SDS011;18697;42.770;23.400;2022-09-03T08:57:31;5.60;;;4.78;;
32196;SDS011;18697;42.770;23.400;2022-09-03T09:00:06;6.25;;;4.47;;
32196;SDS011;18697;42.770;23.400;2022-09-03T09:02:35;9.35;;;4.80;;
32196;SDS011;18697;42.770;23.400;2022-09-03T09:08:18;6.13;;;4.25;;
32196;SDS011;18697;42.770;23.400;2022-09-03T09:11:20;5.32;;;4.22;;
32196;SDS011;18697;42.770;23.400;2022-09-03T09:13:57;11.82;;;7.63;;
32196;SDS011;18697;42.770;23.400;2022-09-03T09:16:49;5.88;;;4.57;;
32196;SDS011;18697;42.770;23.400;2022-09-03T09:22:23;9.80;;;6.80;;
32196;SDS011;18697;42.770;23.400;2022-09-03T09:24:53;12.07;;;8.23;;
32196;SDS011;18697;42.770;23.400;2022-09-03T09:27:23;12.95;;;8.82;;
32196;SDS011;18697;42.770;23.400;2022-09-03T09:29:49;17.73;;;10.77;;
32196;SDS011;18697;42.770;23.400;2022-09-03T09:32:15;19.48;;;11.90;;
32196;SDS011;18697;42.770;23.400;2022-09-03T09:34:43;8.32;;;6.55;;
32196;SDS011;18697;42.770;23.400;2022-09-03T09:37:11;16.35;;;10.82;;
32196;SDS011;18697;42.770;23.400;2022-09-03T09:39:38;12.93;;;8.57;;
32196;SDS011;18697;42.770;23.400;2022-09-03T09:42:06;17.00;;;9.20;;
32196;SDS011;18697;42.770;23.400;2022-09-03T09:44:38;7.07;;;5.50;;
32196;SDS011;18697;42.770;23.400;2022-09-03T09:47:12;5.53;;;4.70;;
32196;SDS011;18697;42.770;23.400;2022-09-03T09:52:18;4.70;;;3.90;;
32196;SDS011;18697;42.770;23.400;2022-09-03T09:54:49;7.95;;;6.65;;
32196;SDS011;18697;42.770;23.400;2022-09-03T09:57:17;12.77;;;6.45;;
32196;SDS011;18697;42.770;23.400;2022-09-03T09:59:49;10.57;;;6.90;;
32196;SDS011;18697;42.770;23.400;2022-09-03T10:02:27;5.45;;;4.72;;
32196;SDS011;18697;42.770;23.400;2022-09-03T10:05:35;13.88;;;10.85;;
32196;SDS011;18697;42.770;23.400;2022-09-03T10:07:53;6.55;;;5.57;;
32196;SDS011;18697;42.770;23.400;2022-09-03T10:10:26;5.22;;;3.63;;
32196;SDS011;18697;42.770;23.400;2022-09-03T10:13:00;11.13;;;8.13;;
32196;SDS011;18697;42.770;23.400;2022-09-03T10:15:40;5.78;;;4.28;;
32196;SDS011;18697;42.770;23.400;2022-09-03T10:21:23;6.07;;;4.15;;
32196;SDS011;18697;42.770;23.400;2022-09-03T10:24:18;7.65;;;5.50;;
32196;SDS011;18697;42.770;23.400;2022-09-03T10:26:51;8.80;;;6.88;;
32196;SDS011;18697;42.770;23.400;2022-09-03T10:29:20;5.75;;;4.97;;
32196;SDS011;18697;42.770;23.400;2022-09-03T10:39:55;5.93;;;5.28;;
32196;SDS011;18697;42.770;23.400;2022-09-03T10:51:05;5.63;;;4.87;;
32196;SDS011;18697;42.770;23.400;2022-09-03T11:04:16;4.95;;;4.22;;
32196;SDS011;18697;42.770;23.400;2022-09-03T11:11:54;4.20;;;3.47;;
32196;SDS011;18697;42.770;23.400;2022-09-03T11:14:29;3.97;;;3.58;;
32196;SDS011;18697;42.770;23.400;2022-09-03T11:17:27;4.00;;;3.60;;
32196;SDS011;18697;42.770;23.400;2022-09-03T11:20:20;4.13;;;3.72;;
32196;SDS011;18697;42.770;23.400;2022-09-03T11:22:45;4.20;;;3.80;;
32196;SDS011;18697;42.770;23.400;2022-09-03T11:25:13;3.30;;;3.00;;
32196;SDS011;18697;42.770;23.400;2022-09-03T11:30:08;4.75;;;2.72;;
32196;SDS011;18697;42.770;23.400;2022-09-03T11:35:14;4.20;;;2.80;;
32196;SDS011;18697;42.770;23.400;2022-09-03T11:38:25;2.70;;;2.50;;
32196;SDS011;18697;42.770;23.400;2022-09-03T11:45:48;3.88;;;3.03;;
32196;SDS011;18697;42.770;23.400;2022-09-03T11:48:33;3.28;;;2.97;;
32196;SDS011;18697;42.770;23.400;2022-09-03T11:51:02;3.90;;;3.60;;
32196;SDS011;18697;42.770;23.400;2022-09-03T11:53:35;3.63;;;3.33;;
32196;SDS011;18697;42.770;23.400;2022-09-03T11:58:30;3.67;;;3.38;;
32196;SDS011;18697;42.770;23.400;2022-09-03T12:01:00;3.78;;;3.35;;
32196;SDS011;18697;42.770;23.400;2022-09-03T12:03:27;4.60;;;3.35;;
32196;SDS011;18697;42.770;23.400;2022-09-03T12:19:52;3.30;;;3.00;;
32196;SDS011;18697;42.770;23.400;2022-09-03T12:22:21;3.30;;;3.00;;
32196;SDS011;18697;42.770;23.400;2022-09-03T12:24:48;3.58;;;3.08;;
32196;SDS011;18697;42.770;23.400;2022-09-03T12:27:19;3.25;;;3.00;;
32196;SDS011;18697;42.770;23.400;2022-09-03T12:30:00;3.45;;;3.15;;
32196;SDS011;18697;42.770;23.400;2022-09-03T12:32:29;3.20;;;2.90;;
32196;SDS011;18697;42.770;23.400;2022-09-03T12:34:56;3.80;;;3.20;;
32196;SDS011;18697;42.770;23.400;2022-09-03T12:37:24;3.38;;;3.08;;
32196;SDS011;18697;42.770;23.400;2022-09-03T12:39:53;3.88;;;3.53;;
32196;SDS011;18697;42.770;23.400;2022-09-03T12:42:26;4.75;;;3.45;;
32196;SDS011;18697;42.770;23.400;2022-09-03T12:44:54;5.28;;;3.20;;
32196;SDS011;18697;42.770;23.400;2022-09-03T12:47:21;4.53;;;2.80;;
32196;SDS011;18697;42.770;23.400;2022-09-03T12:49:49;2.97;;;2.78;;
32196;SDS011;18697;42.770;23.400;2022-09-03T12:54:56;4.65;;;3.95;;
32196;SDS011;18697;42.770;23.400;2022-09-03T12:57:28;4.40;;;2.95;;
32196;SDS011;18697;42.770;23.400;2022-09-03T12:59:59;3.42;;;3.13;;
32196;SDS011;18697;42.770;23.400;2022-09-03T13:02:40;3.60;;;3.08;;
32196;SDS011;18697;42.770;23.400;2022-09-03T13:05:15;6.53;;;2.80;;
32196;SDS011;18697;42.770;23.400;2022-09-03T13:07:44;2.75;;;2.55;;
32196;SDS011;18697;42.770;23.400;2022-09-03T13:10:26;5.82;;;3.42;;
32196;SDS011;18697;42.770;23.400;2022-09-03T13:13:01;3.03;;;2.72;;
32196;SDS011;18697;42.770;23.400;2022-09-03T13:15:32;3.13;;;2.83;;
32196;SDS011;18697;42.770;23.400;2022-09-03T13:20:44;3.88;;;2.53;;
32196;SDS011;18697;42.770;23.400;2022-09-03T13:25:59;5.20;;;3.10;;
32196;SDS011;18697;42.770;23.400;2022-09-03T13:33:58;2.55;;;2.35;;
32196;SDS011;18697;42.770;23.400;2022-09-03T13:37:12;3.90;;;2.63;;
32196;SDS011;18697;42.770;23.400;2022-09-03T13:42:19;2.63;;;2.42;;
32196;SDS011;18697;42.770;23.400;2022-09-03T13:50:03;2.25;;;2.08;;
32196;SDS011;18697;42.770;23.400;2022-09-03T13:52:52;3.00;;;2.10;;
32196;SDS011;18697;42.770;23.400;2022-09-03T13:57:56;4.20;;;2.65;;
32196;SDS011;18697;42.770;23.400;2022-09-03T14:00:48;2.22;;;2.03;;
32196;SDS011;18697;42.770;23.400;2022-09-03T14:03:34;3.80;;;2.30;;
32196;SDS011;18697;42.770;23.400;2022-09-03T14:06:13;2.25;;;1.90;;
32196;SDS011;18697;42.770;23.400;2022-09-03T14:08:58;1.80;;;1.70;;
32196;SDS011;18697;42.770;23.400;2022-09-03T14:11:48;3.20;;;2.45;;
32196;SDS011;18697;42.770;23.400;2022-09-03T14:20:22;2.58;;;2.38;;
32196;SDS011;18697;42.770;23.400;2022-09-03T14:25:27;3.00;;;2.75;;
32196;SDS011;18697;42.770;23.400;2022-09-03T14:27:54;2.95;;;2.38;;
32196;SDS011;18697;42.770;23.400;2022-09-03T14:37:04;2.75;;;2.55;;
32196;SDS011;18697;42.770;23.400;2022-09-03T14:39:52;2.97;;;2.67;;
32196;SDS011;18697;42.770;23.400;2022-09-03T14:56:49;3.30;;;3.00;;
32196;SDS011;18697;42.770;23.400;2022-09-03T15:02:45;6.38;;;3.95;;
32196;SDS011;18697;42.770;23.400;2022-09-03T15:07:53;3.88;;;3.30;;
32196;SDS011;18697;42.770;23.400;2022-09-03T15:10:43;6.35;;;4.45;;
32196;SDS011;18697;42.770;23.400;2022-09-03T15:13:19;13.43;;;9.07;;
32196;SDS011;18697;42.770;23.400;2022-09-03T15:18:29;17.80;;;11.48;;
32196;SDS011;18697;42.770;23.400;2022-09-03T15:37:24;12.98;;;6.72;;
32196;SDS011;18697;42.770;23.400;2022-09-03T15:40:15;8.40;;;6.88;;
32196;SDS011;18697;42.770;23.400;2022-09-03T15:42:51;9.02;;;5.18;;
32196;SDS011;18697;42.770;23.400;2022-09-03T15:45:33;10.43;;;4.90;;
32196;SDS011;18697;42.770;23.400;2022-09-03T15:48:12;8.85;;;5.75;;
32196;SDS011;18697;42.770;23.400;2022-09-03T15:50:49;13.23;;;6.47;;
32196;SDS011;18697;42.770;23.400;2022-09-03T15:53:24;6.20;;;4.63;;
32196;SDS011;18697;42.770;23.400;2022-09-03T15:56:03;11.43;;;5.05;;
32196;SDS011;18697;42.770;23.400;2022-09-03T15:58:41;5.88;;;4.63;;
32196;SDS011;18697;42.770;23.400;2022-09-03T16:01:22;8.48;;;4.90;;
32196;SDS011;18697;42.770;23.400;2022-09-03T16:09:17;9.20;;;5.45;;
32196;SDS011;18697;42.770;23.400;2022-09-03T16:14:22;8.05;;;5.60;;
32196;SDS011;18697;42.770;23.400;2022-09-03T16:16:59;9.00;;;5.32;;
32196;SDS011;18697;42.770;23.400;2022-09-03T16:19:40;6.95;;;5.43;;
32196;SDS011;18697;42.770;23.400;2022-09-03T16:25:12;9.27;;;6.70;;
32196;SDS011;18697;42.770;23.400;2022-09-03T16:28:05;9.65;;;7.25;;
32196;SDS011;18697;42.770;23.400;2022-09-03T16:41:00;6.70;;;5.40;;
32196;SDS011;18697;42.770;23.400;2022-09-03T16:46:19;6.75;;;5.82;;
32196;SDS011;18697;42.770;23.400;2022-09-03T16:48:53;7.85;;;5.57;;
32196;SDS011;18697;42.770;23.400;2022-09-03T17:05:08;10.13;;;4.57;;
32196;SDS011;18697;42.770;23.400;2022-09-03T17:10:48;4.70;;;4.30;;
32196;SDS011;18697;42.770;23.400;2022-09-03T17:30:05;9.35;;;7.65;;
32196;SDS011;18697;42.770;23.400;2022-09-03T17:35:28;13.02;;;9.75;;
32196;SDS011;18697;42.770;23.400;2022-09-03T17:41:24;12.10;;;6.53;;
32196;SDS011;18697;42.770;23.400;2022-09-03T17:44:17;8.48;;;6.28;;
32196;SDS011;18697;42.770;23.400;2022-09-03T17:49:32;9.35;;;6.50;;
32196;SDS011;18697;42.770;23.400;2022-09-03T17:58:13;18.75;;;10.55;;
32196;SDS011;18697;42.770;23.400;2022-09-03T18:00:57;17.05;;;9.80;;
32196;SDS011;18697;42.770;23.400;2022-09-03T18:06:09;14.23;;;8.15;;
32196;SDS011;18697;42.770;23.400;2022-09-03T18:09:06;6.40;;;5.80;;
32196;SDS011;18697;42.770;23.400;2022-09-03T18:11:53;11.07;;;7.75;;
32196;SDS011;18697;42.770;23.400;2022-09-03T18:14:27;11.15;;;7.72;;
32196;SDS011;18697;42.770;23.400;2022-09-03T18:19:47;34.28;;;18.08;;
32196;SDS011;18697;42.770;23.400;2022-09-03T18:25:47;36.97;;;18.83;;
32196;SDS011;18697;42.770;23.400;2022-09-03T18:28:58;25.50;;;14.48;;
32196;SDS011;18697;42.770;23.400;2022-09-03T18:31:45;24.38;;;14.18;;
32196;SDS011;18697;42.770;23.400;2022-09-03T18:34:30;19.73;;;11.30;;
32196;SDS011;18697;42.770;23.400;2022-09-03T18:37:21;22.23;;;11.18;;
32196;SDS011;18697;42.770;23.400;2022-09-03T18:40:10;18.80;;;10.90;;
32196;SDS011;18697;42.770;23.400;2022-09-03T18:43:05;14.75;;;9.88;;
32196;SDS011;18697;42.770;23.400;2022-09-03T18:46:10;13.88;;;7.53;;
32196;SDS011;18697;42.770;23.400;2022-09-03T18:49:15;15.25;;;9.57;;
32196;SDS011;18697;42.770;23.400;2022-09-03T18:52:27;21.52;;;11.32;;
32196;SDS011;18697;42.770;23.400;2022-09-03T18:55:51;17.23;;;10.10;;
32196;SDS011;18697;42.770;23.400;2022-09-03T19:01:30;138.55;;;64.70;;
32196;SDS011;18697;42.770;23.400;2022-09-03T19:04:41;18.67;;;10.98;;
32196;SDS011;18697;42.770;23.400;2022-09-03T19:10:37;231.30;;;33.95;;
32196;SDS011;18697;42.770;23.400;2022-09-03T19:13:32;424.48;;;43.42;;
32196;SDS011;18697;42.770;23.400;2022-09-03T19:25:21;258.10;;;41.75;;
32196;SDS011;18697;42.770;23.400;2022-09-03T19:28:19;183.30;;;24.75;;
32196;SDS011;18697;42.770;23.400;2022-09-03T19:36:39;1160.05;;;580.28;;
32196;SDS011;18697;42.770;23.400;2022-09-03T19:46:06;1999.90;;;999.90;;
32196;SDS011;18697;42.770;23.400;2022-09-03T19:52:06;1999.90;;;999.90;;
32196;SDS011;18697;42.770;23.400;2022-09-03T19:54:52;1999.90;;;999.90;;
32196;SDS011;18697;42.770;23.400;2022-09-03T19:57:42;1999.90;;;999.90;;
32196;SDS011;18697;42.770;23.400;2022-09-03T20:00:32;1999.90;;;999.90;;
32196;SDS011;18697;42.770;23.400;2022-09-03T20:03:16;1999.90;;;999.90;;
32196;SDS011;18697;42.770;23.400;2022-09-03T20:06:00;1999.90;;;999.90;;
32196;SDS011;18697;42.770;23.400;2022-09-03T20:08:47;1999.90;;;999.90;;
32196;SDS011;18697;42.770;23.400;2022-09-03T20:11:33;1999.90;;;999.90;;
32196;SDS011;18697;42.770;23.400;2022-09-03T20:14:01;1999.90;;;999.90;;
32196;SDS011;18697;42.770;23.400;2022-09-03T20:19:17;1999.90;;;999.90;;
32196;SDS011;18697;42.770;23.400;2022-09-03T20:22:23;1999.90;;;999.90;;
32196;SDS011;18697;42.770;23.400;2022-09-03T20:33:30;1999.90;;;999.90;;
32196;SDS011;18697;42.770;23.400;2022-09-03T20:47:07;1999.90;;;999.90;;